createdAt,value
2022-08-26T00:01:53.295Z,98423.87
2022-08-26T00:04:22.229Z,98413.06
2022-08-26T00:06:49.204Z,98413.19
2022-08-26T00:09:16.867Z,98408.94
2022-08-26T00:11:47.460Z,98408.59
2022-08-26T00:14:15.889Z,98406.97
2022-08-26T00:16:48.093Z,98404.50
2022-08-26T00:19:20.700Z,98400.13
2022-08-26T00:21:49.756Z,98395.78
2022-08-26T00:24:19.260Z,98404.03
2022-08-26T00:26:46.588Z,98398.44
2022-08-26T00:29:14.862Z,98399.84
2022-08-26T00:31:42.533Z,98397.19
2022-08-26T00:34:12.501Z,98403.41
2022-08-26T00:36:41.069Z,98394.25
2022-08-26T00:39:08.673Z,98391.19
2022-08-26T00:41:38.278Z,98389.59
2022-08-26T00:44:06.706Z,98390.50
2022-08-26T00:46:46.955Z,98387.84
2022-08-26T00:49:19.709Z,98391.94
2022-08-26T00:51:52.488Z,98390.31
2022-08-26T00:54:23.029Z,98380.44
2022-08-26T00:56:59.876Z,98385.00
2022-08-26T00:59:32.732Z,98388.56
2022-08-26T01:02:02.713Z,98397.53
2022-08-26T01:04:32.249Z,98390.41
2022-08-26T01:07:00.019Z,98386.44
2022-08-26T01:09:27.628Z,98392.94
2022-08-26T01:11:57.684Z,98388.06
2022-08-26T01:14:29.652Z,98392.34
2022-08-26T01:16:56.664Z,98393.47
2022-08-26T01:19:47.923Z,98380.84
2022-08-26T01:22:21.021Z,98385.28
2022-08-26T01:24:49.076Z,98387.13
2022-08-26T01:27:19.835Z,98385.69
2022-08-26T01:29:49.344Z,98387.94
2022-08-26T01:32:22.314Z,98392.63
2022-08-26T01:34:50.426Z,98393.56
2022-08-26T01:37:22.168Z,98391.94
2022-08-26T01:39:54.771Z,98390.59
2022-08-26T01:42:24.694Z,98390.78
2022-08-26T01:45:09.548Z,98393.25
2022-08-26T01:47:37.949Z,98387.94
2022-08-26T01:50:13.416Z,98390.59
2022-08-26T01:52:49.868Z,98384.00
2022-08-26T01:55:32.302Z,98393.44
2022-08-26T01:58:04.824Z,98391.16
2022-08-26T02:00:33.464Z,98387.34
2022-08-26T02:03:18.800Z,98393.66
2022-08-26T02:05:56.787Z,98389.91
2022-08-26T02:08:45.968Z,98381.25
2022-08-26T02:11:13.975Z,98388.88
2022-08-26T02:13:48.707Z,98388.50
2022-08-26T02:16:18.598Z,98386.09
2022-08-26T02:18:47.072Z,98377.97
2022-08-26T02:21:14.614Z,98381.91
2022-08-26T02:23:42.694Z,98378.66
2022-08-26T02:26:16.310Z,98377.59
2022-08-26T02:28:49.063Z,98380.22
2022-08-26T02:31:16.257Z,98372.53
2022-08-26T02:33:43.399Z,98376.97
2022-08-26T02:36:10.746Z,98376.78
2022-08-26T02:38:40.311Z,98372.78
2022-08-26T02:41:10.309Z,98383.91
2022-08-26T02:43:37.393Z,98374.84
2022-08-26T02:46:06.028Z,98371.91
2022-08-26T02:48:33.200Z,98365.91
2022-08-26T02:51:01.161Z,98365.38
2022-08-26T02:53:32.078Z,98371.72
2022-08-26T02:56:03.122Z,98361.72
2022-08-26T02:58:30.095Z,98367.94
2022-08-26T03:00:56.992Z,98361.09
2022-08-26T03:03:23.973Z,98363.84
2022-08-26T03:05:52.096Z,98360.31
2022-08-26T03:08:19.618Z,98367.41
2022-08-26T03:13:15.478Z,98360.41
2022-08-26T03:15:42.334Z,98348.28
2022-08-26T03:18:09.801Z,98358.97
2022-08-26T03:20:37.165Z,98349.31
2022-08-26T03:23:04.077Z,98352.44
2022-08-26T03:25:31.297Z,98352.94
2022-08-26T03:27:59.491Z,98356.13
2022-08-26T03:30:45.214Z,98353.16
2022-08-26T03:33:13.971Z,98356.41
2022-08-26T03:35:43.607Z,98349.56
2022-08-26T03:38:11.187Z,98356.72
2022-08-26T03:40:39.145Z,98353.28
2022-08-26T03:43:09.429Z,98353.38
2022-08-26T03:45:37.862Z,98356.72
2022-08-26T03:48:05.653Z,98352.47
2022-08-26T03:50:34.230Z,98352.75
2022-08-26T03:53:01.895Z,98350.91
2022-08-26T03:55:34.197Z,98354.37
2022-08-26T03:58:01.268Z,98353.56
2022-08-26T04:00:29.688Z,98356.84
2022-08-26T04:02:56.902Z,98350.75
2022-08-26T04:05:25.415Z,98352.16
2022-08-26T04:07:52.494Z,98351.97
2022-08-26T04:10:28.721Z,98351.00
2022-08-26T04:13:03.762Z,98347.63
2022-08-26T04:15:30.954Z,98348.50
2022-08-26T04:17:57.821Z,98350.34
2022-08-26T04:20:25.965Z,98348.00
2022-08-26T04:22:53.033Z,98348.19
2022-08-26T04:25:27.894Z,98348.50
2022-08-26T04:27:55.583Z,98351.66
2022-08-26T04:30:22.472Z,98346.47
2022-08-26T04:32:49.886Z,98351.56
2022-08-26T04:35:17.036Z,98351.84
2022-08-26T04:37:44.209Z,98346.47
2022-08-26T04:40:12.121Z,98358.25
2022-08-26T04:42:39.092Z,98356.63
2022-08-26T04:45:09.975Z,98353.56
2022-08-26T04:47:37.892Z,98352.47
2022-08-26T04:50:07.493Z,98352.69
2022-08-26T04:52:36.324Z,98356.53
2022-08-26T04:55:05.957Z,98351.97
2022-08-26T04:57:35.274Z,98352.47
2022-08-26T05:00:05.658Z,98350.13
2022-08-26T05:02:32.568Z,98347.37
2022-08-26T05:04:59.779Z,98346.16
2022-08-26T05:07:26.700Z,98346.63
2022-08-26T05:09:53.679Z,98346.63
2022-08-26T05:12:21.412Z,98347.44
2022-08-26T05:14:48.268Z,98350.25
2022-08-26T05:17:15.233Z,98351.12
2022-08-26T05:19:42.951Z,98356.22
2022-08-26T05:22:10.061Z,98353.53
2022-08-26T05:24:40.345Z,98354.53
2022-08-26T05:27:11.685Z,98355.69
2022-08-26T05:29:39.267Z,98356.13
2022-08-26T05:32:06.880Z,98353.53
2022-08-26T05:34:34.419Z,98354.44
2022-08-26T05:37:01.887Z,98368.59
2022-08-26T05:39:29.258Z,98366.41
2022-08-26T05:41:56.315Z,98354.13
2022-08-26T05:44:23.182Z,98355.16
2022-08-26T05:46:51.877Z,98352.72
2022-08-26T05:49:18.875Z,98352.06
2022-08-26T05:51:47.640Z,98351.78
2022-08-26T05:54:22.102Z,98346.19
2022-08-26T05:56:50.912Z,98349.88
2022-08-26T05:59:21.407Z,98355.63
2022-08-26T06:01:52.601Z,98343.84
2022-08-26T06:04:20.009Z,98351.84
2022-08-26T06:06:47.557Z,98358.88
2022-08-26T06:09:14.721Z,98351.53
2022-08-26T06:11:45.216Z,98356.84
2022-08-26T06:14:12.323Z,98353.38
2022-08-26T06:16:41.601Z,98348.75
2022-08-26T06:19:11.287Z,98358.72
2022-08-26T06:21:41.501Z,98358.34
2022-08-26T06:24:30.434Z,98360.75
2022-08-26T06:27:01.802Z,98352.84
2022-08-26T06:29:31.431Z,98356.03
2022-08-26T06:31:58.712Z,98356.63
2022-08-26T06:34:30.356Z,98361.87
2022-08-26T06:37:01.412Z,98358.09
2022-08-26T06:39:30.967Z,98352.25
2022-08-26T06:41:59.473Z,98363.50
2022-08-26T06:44:27.318Z,98355.81
2022-08-26T06:46:54.691Z,98356.00
2022-08-26T06:49:26.817Z,98354.63
2022-08-26T06:51:54.783Z,98354.59
2022-08-26T06:54:22.421Z,98356.81
2022-08-26T06:56:49.641Z,98361.31
2022-08-26T06:59:16.575Z,98364.72
2022-08-26T07:01:45.077Z,98361.31
2022-08-26T07:04:20.308Z,98363.91
2022-08-26T07:06:52.656Z,98357.00
2022-08-26T07:09:22.673Z,98370.47
2022-08-26T07:11:51.467Z,98374.03
2022-08-26T07:14:19.307Z,98369.81
2022-08-26T07:16:49.892Z,98361.22
2022-08-26T07:19:30.319Z,98371.16
2022-08-26T07:47:44.419Z,98367.31
2022-08-26T07:50:11.670Z,98367.31
2022-08-26T07:52:38.916Z,98364.78
2022-08-26T07:55:11.631Z,98364.56
2022-08-26T07:57:38.673Z,98372.16
2022-08-26T08:00:09.177Z,98369.75
2022-08-26T08:02:36.126Z,98361.75
2022-08-26T08:05:06.061Z,98358.06
2022-08-26T08:07:44.207Z,98351.47
2022-08-26T08:10:15.538Z,98356.28
2022-08-26T08:12:43.344Z,98356.19
2022-08-26T08:15:13.401Z,98355.56
2022-08-26T08:17:43.493Z,98358.00
2022-08-26T08:20:12.282Z,98356.88
2022-08-26T08:22:39.239Z,98353.28
2022-08-26T08:25:08.163Z,98351.44
2022-08-26T08:27:38.874Z,98349.19
2022-08-26T08:30:06.924Z,98353.44
2022-08-26T08:32:38.464Z,98351.62
2022-08-26T08:35:11.600Z,98350.00
2022-08-26T08:37:38.775Z,98352.19
2022-08-26T08:40:08.095Z,98345.38
2022-08-26T08:42:56.786Z,98344.53
2022-08-26T08:45:51.713Z,98343.34
2022-08-26T08:48:42.560Z,98348.50
2022-08-26T08:51:23.968Z,98347.87
2022-08-26T08:53:54.774Z,98344.06
2022-08-26T08:56:27.514Z,98340.50
2022-08-26T08:59:31.710Z,98343.78
2022-08-26T09:02:08.726Z,98333.56
2022-08-26T09:05:15.141Z,98336.47
2022-08-26T09:07:51.000Z,98333.97
2022-08-26T09:10:26.702Z,98327.41
2022-08-26T09:12:53.640Z,98327.16
2022-08-26T09:15:35.834Z,98332.00
2022-08-26T09:18:09.078Z,98326.03
2022-08-26T09:20:55.508Z,98323.28
2022-08-26T09:23:22.703Z,98325.19
2022-08-26T09:26:25.923Z,98324.03
2022-08-26T09:29:01.080Z,98324.25
2022-08-26T09:31:34.300Z,98326.25
2022-08-26T09:34:22.639Z,98321.91
2022-08-26T09:36:55.724Z,98317.41
2022-08-26T09:39:27.111Z,98320.25
2022-08-26T09:42:05.168Z,98317.34
2022-08-26T09:44:33.123Z,98331.09
2022-08-26T09:47:04.614Z,98318.66
2022-08-26T09:49:41.278Z,98318.38
2022-08-26T09:52:10.603Z,98313.00
2022-08-26T09:54:38.786Z,98310.53
2022-08-26T09:57:25.331Z,98314.84
2022-08-26T09:59:53.406Z,98308.84
2022-08-26T10:02:29.092Z,98315.25
2022-08-26T10:04:58.511Z,98304.03
2022-08-26T10:07:48.437Z,98315.78
2022-08-26T10:10:41.209Z,98309.28
2022-08-26T10:13:12.026Z,98310.06
2022-08-26T10:15:50.657Z,98308.16
2022-08-26T10:18:56.784Z,98303.25
2022-08-26T10:21:33.187Z,98302.88
2022-08-26T10:24:02.038Z,98295.66
2022-08-26T10:27:05.629Z,98295.69
2022-08-26T10:29:43.252Z,98291.63
2022-08-26T10:32:18.854Z,98295.69
2022-08-26T10:34:45.939Z,98293.00
2022-08-26T10:37:18.761Z,98286.25
2022-08-26T10:39:57.122Z,98289.00
2022-08-26T10:42:37.598Z,98289.28
2022-08-26T10:45:25.537Z,98284.59
2022-08-26T10:48:01.339Z,98278.72
2022-08-26T10:50:37.282Z,98273.91
2022-08-26T10:53:14.929Z,98281.34
2022-08-26T10:55:50.905Z,98271.97
2022-08-26T10:58:41.664Z,98275.44
2022-08-26T11:01:35.747Z,98268.13
2022-08-26T11:04:28.804Z,98269.91
2022-08-26T11:07:32.865Z,98270.28
2022-08-26T11:10:12.958Z,98267.09
2022-08-26T11:12:39.836Z,98265.09
2022-08-26T11:15:19.963Z,98262.47
2022-08-26T11:17:51.627Z,98263.22
2022-08-26T11:20:27.971Z,98258.94
2022-08-26T11:23:16.282Z,98250.50
2022-08-26T11:26:01.120Z,98253.31
2022-08-26T11:28:38.239Z,98255.19
2022-08-26T11:31:10.206Z,98248.87
2022-08-26T11:33:46.102Z,98246.69
2022-08-26T11:36:42.211Z,98250.28
2022-08-26T11:39:29.308Z,98246.56
2022-08-26T11:42:00.227Z,98246.44
2022-08-26T11:44:39.564Z,98243.06
2022-08-26T11:47:11.686Z,98237.16
2022-08-26T11:49:41.752Z,98231.22
2022-08-26T11:52:10.113Z,98226.44
2022-08-26T11:54:37.035Z,98230.06
2022-08-26T11:57:09.346Z,98228.44
2022-08-26T11:59:42.453Z,98223.25
2022-08-26T12:02:17.882Z,98223.25
2022-08-26T12:04:49.066Z,98216.03
2022-08-26T12:07:18.586Z,98214.81
2022-08-26T12:10:00.638Z,98210.41
2022-08-26T12:12:35.982Z,98211.63
2022-08-26T12:15:10.689Z,98208.81
2022-08-26T12:17:39.705Z,98209.22
2022-08-26T12:20:30.218Z,98202.41
2022-08-26T12:23:00.191Z,98191.19
2022-08-26T12:25:28.188Z,98191.59
2022-08-26T12:28:05.671Z,98190.81
2022-08-26T12:30:32.592Z,98190.84
2022-08-26T12:33:21.960Z,98190.81
2022-08-26T12:35:56.314Z,98181.19
2022-08-26T12:38:27.102Z,98177.97
2022-08-26T12:40:54.807Z,98171.97
2022-08-26T12:43:57.432Z,98177.19
2022-08-26T12:46:29.044Z,98172.00
2022-08-26T12:49:01.178Z,98173.59
2022-08-26T12:51:31.366Z,98167.56
2022-08-26T12:53:59.405Z,98168.78
2022-08-26T12:56:47.726Z,98167.56
2022-08-26T12:59:25.175Z,98162.34
2022-08-26T13:01:53.720Z,98151.50
2022-08-26T13:04:39.285Z,98151.50
2022-08-26T13:07:35.553Z,98151.91
2022-08-26T13:10:02.456Z,98149.16
2022-08-26T13:12:37.535Z,98145.94
2022-08-26T13:15:06.579Z,98144.34
2022-08-26T13:17:36.025Z,98142.72
2022-08-26T13:20:04.666Z,98144.72
2022-08-26T13:22:31.930Z,98146.72
2022-08-26T13:24:58.848Z,98147.47
2022-08-26T13:27:27.388Z,98129.44
2022-08-26T13:29:57.240Z,98137.81
2022-08-26T13:32:27.166Z,98126.16
2022-08-26T13:34:56.551Z,98128.13
2022-08-26T13:37:34.300Z,98121.72
2022-08-26T13:40:05.066Z,98128.16
2022-08-26T13:42:32.040Z,98133.00
2022-08-26T13:44:59.865Z,98118.19
2022-08-26T13:47:30.416Z,98110.19
2022-08-26T13:49:57.591Z,98112.63
2022-08-26T13:52:30.090Z,98104.22
2022-08-26T13:55:02.188Z,98101.38
2022-08-26T13:57:30.545Z,98103.41
2022-08-26T13:59:59.192Z,98107.03
2022-08-26T14:02:27.870Z,98106.19
2022-08-26T14:04:55.447Z,98100.22
2022-08-26T14:07:23.506Z,98101.81
2022-08-26T14:09:50.563Z,98108.22
2022-08-26T14:12:17.727Z,98099.00
2022-08-26T14:14:45.089Z,98088.16
2022-08-26T14:17:17.954Z,98086.91
2022-08-26T14:19:46.977Z,98074.56
2022-08-26T14:22:17.476Z,98085.78
2022-08-26T14:24:45.139Z,98085.03
2022-08-26T14:27:13.269Z,98073.00
2022-08-26T14:29:40.790Z,98078.59
2022-08-26T14:32:17.186Z,98067.72
2022-08-26T14:34:47.989Z,98069.66
2022-08-26T14:37:15.422Z,98063.63
2022-08-26T14:39:42.498Z,98076.81
2022-08-26T14:42:10.219Z,98065.19
2022-08-26T14:44:37.734Z,98057.19
2022-08-26T14:47:06.733Z,98065.69
2022-08-26T14:49:33.773Z,98064.00
2022-08-26T14:52:00.670Z,98068.72
2022-08-26T14:54:28.959Z,98060.78
2022-08-26T14:56:59.699Z,98053.16
2022-08-26T14:59:38.807Z,98059.19
2022-08-26T15:02:08.917Z,98065.59
2022-08-26T15:04:41.029Z,98064.06
2022-08-26T15:10:09.046Z,98063.28
2022-08-26T15:12:35.985Z,98058.47
2022-08-26T15:15:03.262Z,98060.13
2022-08-26T15:17:30.355Z,98060.13
2022-08-26T15:19:57.726Z,98058.53
2022-08-26T15:22:24.624Z,98060.16
2022-08-26T15:24:58.047Z,98053.28
2022-08-26T15:27:25.004Z,98056.50
2022-08-26T15:29:52.000Z,98056.16
2022-08-26T15:32:18.980Z,98054.56
2022-08-26T15:34:45.904Z,98058.97
2022-08-26T15:37:12.987Z,98049.34
2022-08-26T15:39:39.896Z,98050.97
2022-08-26T15:42:07.051Z,98048.59
2022-08-26T15:44:34.296Z,98051.75
2022-08-26T15:47:01.271Z,98053.00
2022-08-26T15:49:28.387Z,98045.75
2022-08-26T15:51:55.370Z,98047.78
2022-08-26T15:54:23.238Z,98045.34
2022-08-26T15:56:52.451Z,98036.97
2022-08-26T15:59:21.672Z,98031.34
2022-08-26T16:01:48.841Z,98031.72
2022-08-26T16:04:16.036Z,98031.31
2022-08-26T16:06:43.651Z,98027.31
2022-08-26T16:09:10.966Z,98041.72
2022-08-26T16:11:38.020Z,98037.34
2022-08-26T16:14:06.103Z,98031.72
2022-08-26T16:16:33.101Z,98022.50
2022-08-26T16:19:03.271Z,98021.63
2022-08-26T16:21:34.062Z,98024.00
2022-08-26T16:24:00.996Z,98025.28
2022-08-26T16:26:32.648Z,98022.88
2022-08-26T16:29:01.922Z,98020.50
2022-08-26T16:31:28.986Z,98016.91
2022-08-26T16:33:55.875Z,98022.13
2022-08-26T16:36:22.929Z,98019.31
2022-08-26T16:38:56.537Z,98019.72
2022-08-26T16:41:26.360Z,98019.31
2022-08-26T16:43:54.207Z,98016.91
2022-08-26T16:46:23.733Z,98014.09
2022-08-26T16:48:50.880Z,98012.91
2022-08-26T16:51:23.044Z,98011.28
2022-08-26T16:53:51.245Z,98023.28
2022-08-26T16:56:21.150Z,98014.41
2022-08-26T16:58:48.510Z,98013.63
2022-08-26T17:01:16.843Z,98015.22
2022-08-26T17:03:44.305Z,98013.59
2022-08-26T17:06:11.708Z,98019.97
2022-08-26T17:08:40.132Z,98020.75
2022-08-26T17:11:08.513Z,98009.53
2022-08-26T17:13:36.655Z,98014.75
2022-08-26T17:16:07.582Z,98011.53
2022-08-26T17:18:35.041Z,98017.88
2022-08-26T17:21:05.139Z,98013.75
2022-08-26T17:23:32.831Z,98018.84
2022-08-26T17:25:59.757Z,98017.28
2022-08-26T17:28:26.689Z,98024.47
2022-08-26T17:30:56.297Z,98023.56
2022-08-26T17:33:24.629Z,98019.50
2022-08-26T17:35:53.116Z,98019.75
2022-08-26T17:38:21.273Z,98017.41
2022-08-26T17:40:52.103Z,98024.97
2022-08-26T17:43:19.417Z,98030.69
2022-08-26T17:45:46.810Z,98028.28
2022-08-26T17:48:14.083Z,98029.06
2022-08-26T17:50:43.150Z,98035.00
2022-08-26T17:53:18.552Z,98032.06
2022-08-26T17:55:46.777Z,98039.38
2022-08-26T17:58:14.887Z,98030.88
2022-08-26T18:00:47.569Z,98033.19
2022-08-26T18:03:15.100Z,98039.94
2022-08-26T18:05:42.720Z,98036.22
2022-08-26T18:08:10.074Z,98040.97
2022-08-26T18:10:37.008Z,98037.66
2022-08-26T18:13:04.828Z,98044.78
2022-08-26T18:15:31.753Z,98042.63
2022-08-26T18:17:58.747Z,98047.63
2022-08-26T18:20:26.044Z,98038.44
2022-08-26T18:22:54.167Z,98052.75
2022-08-26T18:25:21.223Z,98051.94
2022-08-26T18:27:48.152Z,98052.19
2022-08-26T18:30:20.899Z,98045.75
2022-08-26T18:32:49.477Z,98051.47
2022-08-26T18:35:16.679Z,98047.78
2022-08-26T18:37:44.523Z,98054.38
2022-08-26T18:40:13.948Z,98057.09
2022-08-26T18:42:41.499Z,98055.78
2022-08-26T18:45:09.664Z,98058.41
2022-08-26T18:47:44.039Z,98060.06
2022-08-26T18:50:11.459Z,98058.47
2022-08-26T18:52:38.815Z,98061.00
2022-08-26T18:55:06.727Z,98067.38
2022-08-26T18:57:33.930Z,98071.78
2022-08-26T19:00:01.350Z,98068.50
2022-08-26T19:02:28.558Z,98068.16
2022-08-26T19:04:57.548Z,98066.06
2022-08-26T19:07:24.586Z,98062.59
2022-08-26T19:09:54.045Z,98058.63
2022-08-26T19:12:21.488Z,98069.06
2022-08-26T19:14:48.374Z,98065.97
2022-08-26T19:17:15.551Z,98079.25
2022-08-26T19:19:42.543Z,98079.34
2022-08-26T19:22:11.304Z,98082.84
2022-08-26T19:24:38.334Z,98087.47
2022-08-26T19:27:05.525Z,98086.47
2022-08-26T19:29:35.429Z,98095.53
2022-08-26T19:32:04.416Z,98094.84
2022-08-26T19:34:31.807Z,98095.91
2022-08-26T19:36:58.745Z,98095.63
2022-08-26T19:39:26.699Z,98093.50
2022-08-26T19:41:53.690Z,98108.16
2022-08-26T19:44:41.683Z,98110.63
2022-08-26T19:47:11.050Z,98102.59
2022-08-26T19:49:38.310Z,98112.56
2022-08-26T19:52:06.122Z,98111.78
2022-08-26T19:54:34.676Z,98111.00
2022-08-26T19:57:02.039Z,98117.72
2022-08-26T19:59:29.489Z,98110.97
2022-08-26T20:02:00.803Z,98118.16
2022-08-26T20:04:32.912Z,98118.50
2022-08-26T20:07:01.851Z,98120.94
2022-08-26T20:09:34.248Z,98117.25
2022-08-26T20:12:02.085Z,98118.16
2022-08-26T20:14:29.908Z,98110.44
2022-08-26T20:16:57.350Z,98107.19
2022-08-26T20:19:42.885Z,98109.16
2022-08-26T20:22:10.826Z,98116.13
2022-08-26T20:24:37.999Z,98116.03
2022-08-26T20:27:08.011Z,98120.34
2022-08-26T20:29:36.500Z,98112.25
2022-08-26T20:32:06.206Z,98113.88
2022-08-26T20:34:33.847Z,98116.06
2022-08-26T20:37:01.239Z,98114.59
2022-08-26T20:39:31.246Z,98121.06
2022-08-26T20:41:58.967Z,98107.84
2022-08-26T20:44:27.083Z,98114.91
2022-08-26T20:46:55.375Z,98118.25
2022-08-26T20:49:22.428Z,98114.44
2022-08-26T20:51:52.617Z,98118.72
2022-08-26T20:54:28.222Z,98116.84
2022-08-26T20:56:57.324Z,98104.06
2022-08-26T20:59:25.043Z,98105.78
2022-08-26T21:01:52.115Z,98108.03
2022-08-26T21:04:22.170Z,98104.50
2022-08-26T21:06:52.160Z,98108.41
2022-08-26T21:09:21.786Z,98101.22
2022-08-26T21:11:48.932Z,98105.53
2022-08-26T21:14:16.928Z,98109.06
2022-08-26T21:16:45.872Z,98109.66
2022-08-26T21:19:17.879Z,98106.09
2022-08-26T21:21:46.012Z,98099.25
2022-08-26T21:24:13.548Z,98106.69
2022-08-26T21:26:40.643Z,98102.06
2022-08-26T21:29:09.993Z,98098.69
2022-08-26T21:31:42.245Z,98098.38
2022-08-26T21:34:12.186Z,98092.41
2022-08-26T21:36:39.140Z,98093.16
2022-08-26T21:39:11.230Z,98092.69
2022-08-26T21:41:39.287Z,98090.47
2022-08-26T21:44:06.809Z,98097.34
2022-08-26T21:46:37.421Z,98097.69
2022-08-26T21:49:07.597Z,98096.19
2022-08-26T21:51:41.020Z,98108.28
2022-08-26T21:54:11.348Z,98098.31
2022-08-26T21:56:42.154Z,98099.91
2022-08-26T21:59:09.675Z,98094.03
2022-08-26T22:01:37.864Z,98096.44
2022-08-26T22:04:06.817Z,98100.03
2022-08-26T22:06:35.723Z,98088.75
2022-08-26T22:09:02.601Z,98091.44
2022-08-26T22:11:29.561Z,98089.97
2022-08-26T22:13:57.077Z,98093.88
2022-08-26T22:16:26.962Z,98092.69
2022-08-26T22:18:54.877Z,98084.25
2022-08-26T22:21:28.125Z,98082.19
2022-08-26T22:23:57.986Z,98084.94
2022-08-26T22:26:28.955Z,98084.97
2022-08-26T22:28:59.161Z,98082.66
2022-08-26T22:31:37.514Z,98081.19
2022-08-26T22:34:11.183Z,98074.91
2022-08-26T22:36:44.371Z,98071.81
2022-08-26T22:39:13.539Z,98070.41
2022-08-26T22:41:43.188Z,98072.53
2022-08-26T22:44:11.876Z,98074.81
2022-08-26T22:46:40.494Z,98074.34
2022-08-26T22:49:09.708Z,98071.13
2022-08-26T22:51:36.717Z,98067.16
2022-08-26T22:54:03.936Z,98067.28
2022-08-26T22:56:30.846Z,98067.16
2022-08-26T22:58:57.780Z,98068.91
2022-08-26T23:01:24.823Z,98065.63
2022-08-26T23:03:51.812Z,98062.06
2022-08-26T23:06:18.739Z,98057.87
2022-08-26T23:08:47.201Z,98059.94
2022-08-26T23:11:15.106Z,98059.00
2022-08-26T23:13:42.091Z,98054.91
2022-08-26T23:16:11.226Z,98057.53
2022-08-26T23:18:40.128Z,98056.53
2022-08-26T23:21:07.423Z,98060.47
2022-08-26T23:23:35.353Z,98059.38
2022-08-26T23:26:06.164Z,98058.50
2022-08-26T23:28:34.647Z,98062.97
2022-08-26T23:31:01.898Z,98051.63
2022-08-26T23:33:48.915Z,98057.16
2022-08-26T23:36:18.207Z,98057.75
2022-08-26T23:38:52.716Z,98054.84
2022-08-26T23:41:22.486Z,98056.78
2022-08-26T23:43:50.012Z,98059.25
2022-08-26T23:46:17.720Z,98063.13
2022-08-26T23:48:44.762Z,98063.22
2022-08-26T23:51:30.450Z,98062.75
2022-08-26T23:53:58.057Z,98067.88
2022-08-26T23:56:25.430Z,98064.34
2022-08-26T23:58:54.323Z,98057.31
